createdAt,value
2018-01-11T00:01:24.736Z,2.96
2018-01-11T00:03:53.177Z,2.80
2018-01-11T00:06:21.491Z,2.70
2018-01-11T00:08:51.496Z,2.67
2018-01-11T00:11:20.420Z,2.86
2018-01-11T00:13:48.974Z,2.85
2018-01-11T00:16:17.342Z,2.72
2018-01-11T00:18:45.640Z,2.68
2018-01-11T00:21:13.983Z,2.97
2018-01-11T00:23:42.280Z,2.80
2018-01-11T00:26:10.676Z,2.68
2018-01-11T00:28:38.959Z,2.59
2018-01-11T00:31:07.297Z,2.63
2018-01-11T00:33:35.691Z,2.57
2018-01-11T00:36:04.051Z,2.56
2018-01-11T00:38:32.379Z,2.56
2018-01-11T00:41:00.747Z,2.79
2018-01-11T00:43:29.110Z,2.71
2018-01-11T00:45:57.608Z,2.67
2018-01-11T00:48:26.124Z,2.57
2018-01-11T00:50:54.438Z,2.54
2018-01-11T00:53:22.726Z,2.67
2018-01-11T00:55:51.203Z,2.61
2018-01-11T00:58:19.599Z,2.50
2018-01-11T01:00:47.971Z,2.49
2018-01-11T01:03:16.616Z,2.48
2018-01-11T01:05:45.445Z,2.54
2018-01-11T01:08:13.724Z,2.50
2018-01-11T01:10:42.183Z,2.58
2018-01-11T01:13:10.509Z,2.62
2018-01-11T01:15:38.835Z,2.46
2018-01-11T01:18:08.322Z,2.50
2018-01-11T01:20:36.961Z,2.53
2018-01-11T01:23:05.848Z,2.42
2018-01-11T01:25:34.229Z,2.47
2018-01-11T01:28:02.603Z,2.50
2018-01-11T01:30:31.331Z,2.39
2018-01-11T01:32:59.676Z,2.36
2018-01-11T01:35:28.070Z,2.41
2018-01-11T01:37:56.743Z,2.32
2018-01-11T01:40:27.402Z,2.42
2018-01-11T01:42:55.915Z,2.47
2018-01-11T01:45:30.747Z,2.35
2018-01-11T01:47:59.094Z,2.44
2018-01-11T01:50:27.547Z,2.33
2018-01-11T01:52:55.995Z,2.42
2018-01-11T01:55:24.483Z,2.65
2018-01-11T01:57:52.787Z,2.45
2018-01-11T02:00:21.078Z,2.47
2018-01-11T02:02:49.490Z,2.42
2018-01-11T02:05:17.804Z,2.56
2018-01-11T02:07:46.112Z,2.66
2018-01-11T02:10:14.421Z,2.58
2018-01-11T02:12:42.783Z,2.38
2018-01-11T02:15:11.098Z,2.46
2018-01-11T02:17:39.565Z,2.28
2018-01-11T02:20:07.897Z,2.33
2018-01-11T02:22:36.341Z,2.35
2018-01-11T02:25:04.686Z,2.51
2018-01-11T02:27:33.067Z,2.47
2018-01-11T02:30:01.319Z,2.43
2018-01-11T02:32:29.722Z,2.53
2018-01-11T02:34:58.019Z,2.49
2018-01-11T02:37:26.429Z,2.60
2018-01-11T02:39:55.365Z,2.46
2018-01-11T02:42:23.689Z,2.41
2018-01-11T02:53:39.073Z,2.30
2018-01-11T02:56:07.580Z,2.25
2018-01-11T02:58:35.846Z,2.31
2018-01-11T03:01:04.183Z,2.23
2018-01-11T03:03:32.593Z,2.29
2018-01-11T03:06:00.917Z,2.34
2018-01-11T03:08:29.174Z,2.31
2018-01-11T03:10:57.840Z,2.28
2018-01-11T03:13:26.112Z,2.25
2018-01-11T03:15:54.492Z,2.15
2018-01-11T03:18:22.760Z,2.11
2018-01-11T03:20:51.123Z,2.17
2018-01-11T03:23:19.403Z,2.25
2018-01-11T03:25:47.921Z,2.35
2018-01-11T03:28:16.186Z,2.39
2018-01-11T03:30:45.368Z,2.28
2018-01-11T03:33:13.846Z,2.44
2018-01-11T03:35:42.288Z,2.38
2018-01-11T03:38:10.707Z,2.46
2018-01-11T03:40:39.001Z,2.48
2018-01-11T03:43:07.286Z,2.43
2018-01-11T03:45:35.682Z,2.41
2018-01-11T03:48:04.112Z,2.49
2018-01-11T03:50:32.526Z,2.43
2018-01-11T03:53:00.986Z,2.39
2018-01-11T03:55:29.288Z,2.39
2018-01-11T03:57:57.955Z,2.40
2018-01-11T04:00:26.259Z,2.51
2018-01-11T04:02:54.532Z,2.38
2018-01-11T04:05:23.003Z,2.30
2018-01-11T04:07:51.435Z,2.25
2018-01-11T04:10:19.733Z,2.30
2018-01-11T04:12:48.002Z,2.38
2018-01-11T04:15:16.512Z,2.30
2018-01-11T04:17:44.787Z,2.35
2018-01-11T04:20:13.286Z,2.36
2018-01-11T04:22:41.552Z,2.35
2018-01-11T04:25:10.026Z,2.35
2018-01-11T04:27:38.471Z,2.29
2018-01-11T04:30:06.770Z,2.29
2018-01-11T04:32:35.033Z,2.29
2018-01-11T04:35:03.418Z,2.30
2018-01-11T04:37:31.778Z,2.34
2018-01-11T04:40:00.092Z,2.39
2018-01-11T04:42:28.474Z,2.51
2018-01-11T04:44:56.746Z,2.48
2018-01-11T04:47:25.073Z,2.37
2018-01-11T04:49:56.608Z,2.36
2018-01-11T04:52:25.007Z,2.45
2018-01-11T04:54:53.404Z,2.45
2018-01-11T04:57:21.915Z,2.42
2018-01-11T04:59:50.174Z,2.39
2018-01-11T05:05:14.554Z,2.40
2018-01-11T05:07:42.903Z,2.43
2018-01-11T05:10:11.222Z,2.40
2018-01-11T05:12:39.525Z,2.48
2018-01-11T05:15:07.903Z,2.75
2018-01-11T05:17:36.214Z,2.65
2018-01-11T05:20:04.592Z,2.64
2018-01-11T05:22:32.887Z,2.66
2018-01-11T05:25:01.142Z,2.69
2018-01-11T05:27:29.484Z,2.69
2018-01-11T05:29:57.797Z,2.67
2018-01-11T05:32:26.265Z,2.71
2018-01-11T05:34:54.704Z,2.81
2018-01-11T05:37:23.027Z,2.80
2018-01-11T05:39:51.475Z,2.76
2018-01-11T05:42:20.872Z,2.87
2018-01-11T05:44:49.196Z,2.91
2018-01-11T05:47:17.920Z,2.94
2018-01-11T05:49:46.414Z,2.87
2018-01-11T05:52:14.736Z,2.84
2018-01-11T05:54:43.160Z,2.80
2018-01-11T05:57:11.468Z,2.80
2018-01-11T05:59:40.369Z,2.75
2018-01-11T06:02:08.847Z,2.83
2018-01-11T06:04:37.582Z,2.84
2018-01-11T06:07:06.023Z,2.86
2018-01-11T06:09:34.443Z,2.84
2018-01-11T06:12:02.754Z,2.80
2018-01-11T06:14:32.114Z,2.86
2018-01-11T06:17:01.291Z,2.80
2018-01-11T06:19:29.704Z,2.83
2018-01-11T06:21:58.519Z,2.90
2018-01-11T06:24:26.986Z,2.83
2018-01-11T06:26:55.600Z,2.83
2018-01-11T06:29:24.219Z,2.83
2018-01-11T06:31:52.595Z,2.80
2018-01-11T06:34:20.895Z,2.94
2018-01-11T06:36:49.220Z,2.87
2018-01-11T06:39:17.680Z,2.77
2018-01-11T06:41:45.994Z,2.86
2018-01-11T06:44:14.311Z,2.86
2018-01-11T06:46:42.626Z,2.84
2018-01-11T06:49:12.106Z,2.81
2018-01-11T06:51:40.491Z,2.91
2018-01-11T06:54:08.956Z,2.88
2018-01-11T06:56:37.251Z,2.80
2018-01-11T06:59:05.651Z,2.83
2018-01-11T07:01:34.020Z,2.90
2018-01-11T07:04:02.378Z,2.92
2018-01-11T07:06:30.698Z,2.97
2018-01-11T07:08:59.808Z,2.83
2018-01-11T07:11:28.281Z,2.76
2018-01-11T07:13:56.710Z,2.74
2018-01-11T07:16:25.012Z,2.90
2018-01-11T07:18:53.462Z,2.77
2018-01-11T07:21:21.764Z,2.83
2018-01-11T07:23:50.054Z,2.80
2018-01-11T07:26:18.359Z,2.79
2018-01-11T07:28:46.682Z,2.77
2018-01-11T07:31:15.120Z,2.84
2018-01-11T07:33:43.551Z,2.76
2018-01-11T07:36:12.047Z,2.78
2018-01-11T07:38:40.505Z,2.85
2018-01-11T07:41:08.819Z,3.02
2018-01-11T07:43:37.304Z,3.00
2018-01-11T07:46:05.888Z,3.04
2018-01-11T07:48:34.275Z,3.11
2018-01-11T07:51:02.723Z,2.93
2018-01-11T07:53:31.022Z,2.97
2018-01-11T07:55:59.335Z,3.24
2018-01-11T07:58:27.731Z,3.18
2018-01-11T08:00:56.039Z,2.98
2018-01-11T08:03:24.378Z,3.10
2018-01-11T08:05:52.726Z,3.09
2018-01-11T08:08:21.020Z,3.09
2018-01-11T08:10:49.342Z,2.99
2018-01-11T08:13:17.662Z,2.94
2018-01-11T08:15:46.040Z,3.21
2018-01-11T08:18:14.503Z,3.09
2018-01-11T08:20:42.850Z,3.11
2018-01-11T08:23:11.197Z,2.96
2018-01-11T08:25:39.634Z,2.94
2018-01-11T08:28:08.142Z,3.00
2018-01-11T08:30:36.449Z,3.08
2018-01-11T08:33:04.855Z,3.12
2018-01-11T08:35:33.171Z,2.98
2018-01-11T08:38:01.539Z,2.95
2018-01-11T08:40:30.068Z,3.07
2018-01-11T08:42:58.400Z,3.08
2018-01-11T08:45:26.773Z,3.20
2018-01-11T08:47:55.096Z,3.07
2018-01-11T08:50:23.711Z,3.09
2018-01-11T08:52:52.302Z,2.98
2018-01-11T08:55:20.804Z,3.08
2018-01-11T08:57:49.647Z,3.00
2018-01-11T09:00:17.961Z,3.08
2018-01-11T09:02:46.252Z,3.22
2018-01-11T09:05:14.613Z,2.98
2018-01-11T09:07:42.917Z,3.09
2018-01-11T09:10:11.261Z,3.12
2018-01-11T09:12:39.538Z,3.08
2018-01-11T09:15:07.861Z,3.13
2018-01-11T09:17:36.175Z,3.21
2018-01-11T09:20:04.483Z,3.10
2018-01-11T09:22:32.814Z,3.11
2018-01-11T09:25:01.051Z,3.00
2018-01-11T09:27:29.380Z,2.93
2018-01-11T09:29:57.646Z,3.02
2018-01-11T09:32:26.128Z,2.94
2018-01-11T09:34:54.423Z,3.13
2018-01-11T09:37:22.779Z,3.20
2018-01-11T09:39:51.076Z,3.10
2018-01-11T09:42:19.442Z,3.04
2018-01-11T09:44:47.710Z,3.03
2018-01-11T09:47:16.238Z,3.12
2018-01-11T09:49:44.679Z,3.13
2018-01-11T09:52:13.048Z,3.25
2018-01-11T09:54:41.359Z,3.26
2018-01-11T09:57:09.675Z,3.26
2018-01-11T09:59:37.967Z,3.26
2018-01-11T10:02:06.281Z,3.36
2018-01-11T10:04:34.652Z,3.12
2018-01-11T10:07:02.988Z,3.24
2018-01-11T10:09:31.304Z,3.22
2018-01-11T10:11:59.783Z,3.27
2018-01-11T10:14:28.060Z,3.44
2018-01-11T10:16:56.572Z,3.33
2018-01-11T10:19:24.864Z,3.30
2018-01-11T10:21:53.319Z,3.14
2018-01-11T10:24:21.774Z,3.23
2018-01-11T10:26:50.228Z,3.25
2018-01-11T10:29:19.066Z,3.22
2018-01-11T10:31:47.379Z,3.29
2018-01-11T10:34:15.684Z,3.40
2018-01-11T10:36:43.983Z,3.37
2018-01-11T10:39:12.367Z,3.49
2018-01-11T10:41:40.674Z,3.58
2018-01-11T10:44:08.951Z,3.53
2018-01-11T10:46:37.279Z,3.57
2018-01-11T10:49:05.673Z,3.30
2018-01-11T10:51:34.091Z,3.21
2018-01-11T10:54:02.436Z,3.14
2018-01-11T10:56:30.760Z,3.21
2018-01-11T10:58:59.075Z,3.60
2018-01-11T11:01:31.534Z,3.36
2018-01-11T11:03:59.909Z,3.41
2018-01-11T11:06:28.238Z,3.45
2018-01-11T11:08:56.527Z,3.29
2018-01-11T11:11:24.966Z,3.39
2018-01-11T11:13:53.307Z,3.25
2018-01-11T11:16:21.727Z,3.22
2018-01-11T11:18:50.193Z,3.28
2018-01-11T11:21:18.526Z,3.30
2018-01-11T11:23:46.850Z,3.52
2018-01-11T11:26:15.230Z,3.63
2018-01-11T11:28:43.517Z,3.46
2018-01-11T11:31:11.991Z,3.45
2018-01-11T11:33:40.288Z,3.42
2018-01-11T11:36:08.651Z,3.44
2018-01-11T11:38:36.915Z,3.24
2018-01-11T11:41:05.218Z,3.41
2018-01-11T11:43:33.651Z,3.52
2018-01-11T11:46:01.946Z,3.43
2018-01-11T11:48:30.236Z,3.80
2018-01-11T11:50:58.576Z,3.90
2018-01-11T11:53:26.846Z,4.00
2018-01-11T11:55:55.163Z,4.03
2018-01-11T11:58:23.455Z,3.80
2018-01-11T12:00:51.922Z,4.03
2018-01-11T12:03:21.848Z,3.73
2018-01-11T12:05:50.174Z,3.89
2018-01-11T12:08:18.480Z,4.06
2018-01-11T12:10:46.778Z,4.01
2018-01-11T12:13:15.058Z,4.07
2018-01-11T12:15:43.416Z,3.82
2018-01-11T12:18:11.730Z,3.82
2018-01-11T12:20:40.062Z,3.80
2018-01-11T12:23:08.455Z,3.93
2018-01-11T12:25:36.761Z,4.09
2018-01-11T12:28:05.215Z,4.26
2018-01-11T12:30:33.651Z,4.27
2018-01-11T12:33:02.147Z,4.19
2018-01-11T12:35:30.444Z,4.07
2018-01-11T12:37:58.743Z,4.11
2018-01-11T12:40:33.574Z,4.13
2018-01-11T12:43:02.018Z,3.96
2018-01-11T12:45:30.553Z,4.04
2018-01-11T12:47:58.862Z,4.04
2018-01-11T12:50:27.183Z,4.00
2018-01-11T12:52:57.432Z,4.11
2018-01-11T12:55:25.743Z,4.22
2018-01-11T12:57:54.072Z,4.40
2018-01-11T13:00:22.543Z,4.54
2018-01-11T13:02:50.875Z,4.53
2018-01-11T13:05:19.226Z,4.55
2018-01-11T13:07:47.601Z,4.30
2018-01-11T13:10:15.880Z,4.14
2018-01-11T13:12:44.155Z,4.38
2018-01-11T13:15:12.469Z,4.17
2018-01-11T13:17:40.895Z,4.08
2018-01-11T13:20:09.223Z,3.94
2018-01-11T13:22:37.559Z,4.12
2018-01-11T13:25:05.928Z,4.14
2018-01-11T13:27:34.275Z,4.30
2018-01-11T13:30:02.769Z,3.99
2018-01-11T13:32:31.276Z,3.98
2018-01-11T13:34:59.712Z,4.07
2018-01-11T13:37:28.420Z,4.36
2018-01-11T13:39:59.531Z,4.51
2018-01-11T13:42:28.820Z,4.37
2018-01-11T13:44:57.611Z,4.54
2018-01-11T13:47:26.824Z,4.39
2018-01-11T13:49:55.311Z,4.24
2018-01-11T13:52:23.782Z,4.22
2018-01-11T13:54:52.763Z,4.16
2018-01-11T13:57:21.669Z,4.27
2018-01-11T13:59:49.972Z,4.41
2018-01-11T14:02:18.342Z,4.60
2018-01-11T14:04:46.824Z,4.37
2018-01-11T14:07:15.313Z,4.71
2018-01-11T14:09:45.018Z,4.78
2018-01-11T14:12:15.707Z,4.63
2018-01-11T14:14:46.389Z,4.46
2018-01-11T14:17:14.799Z,4.09
2018-01-11T14:19:43.159Z,4.24
2018-01-11T14:22:11.717Z,4.41
2018-01-11T14:24:40.188Z,4.53
2018-01-11T14:27:08.687Z,4.59
2018-01-11T14:29:38.328Z,4.54
2018-01-11T14:32:06.935Z,4.40
2018-01-11T14:34:36.064Z,4.19
2018-01-11T14:37:04.431Z,4.15
2018-01-11T14:39:32.991Z,4.12
2018-01-11T14:42:01.323Z,4.33
2018-01-11T14:44:32.283Z,4.19
2018-01-11T14:47:01.075Z,4.26
2018-01-11T14:49:29.342Z,3.96
2018-01-11T14:51:57.741Z,3.95
2018-01-11T14:54:26.395Z,3.82
2018-01-11T14:56:54.958Z,3.76
2018-01-11T14:59:23.231Z,3.74
2018-01-11T15:01:51.587Z,3.74
2018-01-11T15:04:19.908Z,3.71
2018-01-11T15:06:48.260Z,3.75
2018-01-11T15:09:16.808Z,3.85
2018-01-11T15:11:45.195Z,4.01
2018-01-11T15:14:13.528Z,3.93
2018-01-11T15:16:42.011Z,3.87
2018-01-11T15:19:10.327Z,3.84
2018-01-11T15:21:38.693Z,3.83
2018-01-11T15:24:07.058Z,3.87
2018-01-11T15:26:35.387Z,4.07
2018-01-11T15:29:03.898Z,3.92
2018-01-11T15:31:32.263Z,3.86
2018-01-11T15:34:00.708Z,3.92
2018-01-11T15:36:29.058Z,4.04
2018-01-11T15:38:57.550Z,4.08
2018-01-11T15:41:25.887Z,4.06
2018-01-11T15:43:54.211Z,4.02
2018-01-11T15:46:22.515Z,4.10
2018-01-11T15:48:50.990Z,3.99
2018-01-11T15:51:19.517Z,4.21
2018-01-11T15:53:47.930Z,4.12
2018-01-11T15:56:16.385Z,4.09
2018-01-11T15:58:45.511Z,4.03
2018-01-11T16:01:13.995Z,4.07
2018-01-11T16:03:42.286Z,4.07
2018-01-11T16:06:10.711Z,4.06
2018-01-11T16:08:39.124Z,4.07
2018-01-11T16:11:07.684Z,4.00
2018-01-11T16:13:36.021Z,4.14
2018-01-11T16:16:04.391Z,4.18
2018-01-11T16:18:32.951Z,4.16
2018-01-11T16:21:01.507Z,4.07
2018-01-11T16:23:29.852Z,4.09
2018-01-11T16:25:58.456Z,4.19
2018-01-11T16:28:27.151Z,4.29
2018-01-11T16:30:55.679Z,4.27
2018-01-11T16:33:25.473Z,4.24
2018-01-11T16:35:53.788Z,4.23
2018-01-11T16:38:22.068Z,4.18
2018-01-11T16:40:50.479Z,4.13
2018-01-11T16:43:18.783Z,4.25
2018-01-11T16:45:47.127Z,4.19
2018-01-11T16:48:15.427Z,4.26
2018-01-11T16:50:44.140Z,4.26
2018-01-11T16:53:12.462Z,4.13
2018-01-11T16:55:40.774Z,4.13
2018-01-11T16:58:09.115Z,4.22
2018-01-11T17:00:37.431Z,4.34
2018-01-11T17:03:06.088Z,4.27
2018-01-11T17:05:34.382Z,4.21
2018-01-11T17:08:04.495Z,4.14
2018-01-11T17:10:32.963Z,4.08
2018-01-11T17:13:01.244Z,4.08
2018-01-11T17:15:29.587Z,4.11
2018-01-11T17:17:57.934Z,4.14
2018-01-11T17:20:26.316Z,4.05
2018-01-11T17:22:54.614Z,4.09
2018-01-11T17:25:22.972Z,4.08
2018-01-11T17:27:51.563Z,4.14
2018-01-11T17:30:19.940Z,4.30
2018-01-11T17:32:48.210Z,4.23
2018-01-11T17:35:16.870Z,4.31
2018-01-11T17:37:45.274Z,4.34
2018-01-11T17:40:14.568Z,4.31
2018-01-11T17:42:42.892Z,4.28
2018-01-11T17:45:11.218Z,4.24
2018-01-11T17:47:39.619Z,4.30
2018-01-11T17:50:11.265Z,4.19
2018-01-11T17:52:39.947Z,4.24
2018-01-11T17:55:08.267Z,4.18
2018-01-11T17:57:36.640Z,4.18
2018-01-11T18:00:05.967Z,4.19
2018-01-11T18:02:34.346Z,4.08
2018-01-11T18:05:03.230Z,4.16
2018-01-11T18:07:31.803Z,4.13
2018-01-11T18:10:01.449Z,4.18
2018-01-11T18:12:30.560Z,4.19
2018-01-11T18:14:59.826Z,4.10
2018-01-11T18:17:28.487Z,4.10
2018-01-11T18:19:57.023Z,4.01
2018-01-11T18:22:25.587Z,3.92
2018-01-11T18:24:54.482Z,3.69
2018-01-11T18:27:24.854Z,3.95
2018-01-11T18:29:53.359Z,3.92
2018-01-11T18:32:21.756Z,3.64
2018-01-11T18:34:51.730Z,3.67
2018-01-11T18:37:20.166Z,3.69
2018-01-11T18:39:49.462Z,3.83
2018-01-11T18:42:18.862Z,3.74
2018-01-11T18:44:47.387Z,3.76
2018-01-11T18:47:16.196Z,3.79
2018-01-11T18:49:45.364Z,3.60
2018-01-11T18:52:14.106Z,3.54
2018-01-11T18:54:43.376Z,3.59
2018-01-11T18:57:11.768Z,3.56
2018-01-11T18:59:41.519Z,3.47
2018-01-11T19:02:10.178Z,3.51
2018-01-11T19:04:38.770Z,3.69
2018-01-11T19:07:07.339Z,3.67
2018-01-11T19:09:35.712Z,3.56
2018-01-11T19:12:04.123Z,3.41
2018-01-11T19:14:39.079Z,3.50
2018-01-11T19:17:07.474Z,3.68
2018-01-11T19:19:35.738Z,3.57
2018-01-11T19:22:04.102Z,3.47
2018-01-11T19:24:32.417Z,3.51
2018-01-11T19:27:00.812Z,3.74
2018-01-11T19:29:29.118Z,3.78
2018-01-11T19:31:57.623Z,3.70
2018-01-11T19:34:27.541Z,3.83
2018-01-11T19:36:56.276Z,3.81
2018-01-11T19:39:24.612Z,3.54
2018-01-11T19:41:53.959Z,3.50
2018-01-11T19:44:23.033Z,3.50
2018-01-11T19:46:52.067Z,3.43
2018-01-11T19:49:21.776Z,3.31
2018-01-11T19:51:50.634Z,3.52
2018-01-11T19:54:19.160Z,3.37
2018-01-11T19:56:47.510Z,3.63
2018-01-11T19:59:16.919Z,3.48
2018-01-11T20:01:45.358Z,3.41
2018-01-11T20:04:13.636Z,3.53
2018-01-11T20:06:41.973Z,3.54
2018-01-11T20:09:10.469Z,3.53
2018-01-11T20:11:38.795Z,3.62
2018-01-11T20:14:07.126Z,3.50
2018-01-11T20:16:35.439Z,3.48
2018-01-11T20:19:04.348Z,3.47
2018-01-11T20:21:32.671Z,3.42
2018-01-11T20:24:00.979Z,3.45
2018-01-11T20:26:29.400Z,3.46
2018-01-11T20:30:00.476Z,3.41
2018-01-11T20:32:28.944Z,3.47
2018-01-11T20:34:57.208Z,3.44
2018-01-11T20:37:25.745Z,3.64
2018-01-11T20:39:54.007Z,3.51
2018-01-11T20:42:22.523Z,3.57
2018-01-11T20:44:50.838Z,3.57
2018-01-11T20:47:19.194Z,3.53
2018-01-11T20:49:47.478Z,3.59
2018-01-11T20:52:16.063Z,3.50
2018-01-11T20:54:44.452Z,3.55
2018-01-11T20:57:12.812Z,3.79
2018-01-11T20:59:41.151Z,3.73
2018-01-11T21:02:09.590Z,3.41
2018-01-11T21:04:37.883Z,3.48
2018-01-11T21:07:06.259Z,3.46
2018-01-11T21:09:34.547Z,3.48
2018-01-11T21:12:02.879Z,3.63
2018-01-11T21:14:31.227Z,3.46
2018-01-11T21:16:59.556Z,3.46
2018-01-11T21:19:27.835Z,3.40
2018-01-11T21:21:57.960Z,3.42
2018-01-11T21:24:27.393Z,3.60
2018-01-11T21:26:55.947Z,3.63
2018-01-11T21:29:24.631Z,3.45
2018-01-11T21:31:53.130Z,3.29
2018-01-11T21:34:22.632Z,3.49
2018-01-11T21:36:51.454Z,3.27
2018-01-11T21:39:20.024Z,3.20
2018-01-11T21:41:48.529Z,3.21
2018-01-11T21:44:16.855Z,3.30
2018-01-11T21:46:45.157Z,3.38
2018-01-11T21:49:13.560Z,3.24
2018-01-11T21:51:41.874Z,3.39
2018-01-11T21:54:10.356Z,3.41
2018-01-11T21:56:38.951Z,3.33
2018-01-11T21:59:07.673Z,3.42
2018-01-11T22:01:36.735Z,3.38
2018-01-11T22:04:05.389Z,3.26
2018-01-11T22:06:33.908Z,3.40
2018-01-11T22:09:02.193Z,3.43
2018-01-11T22:11:30.622Z,3.17
2018-01-11T22:13:58.939Z,3.46
2018-01-11T22:16:27.410Z,3.36
2018-01-11T22:18:55.727Z,3.50
2018-01-11T22:21:24.055Z,3.28
2018-01-11T22:23:52.360Z,3.40
2018-01-11T22:26:21.163Z,3.26
2018-01-11T22:28:49.482Z,3.12
2018-01-11T22:31:18.044Z,3.10
2018-01-11T22:33:46.451Z,3.06
2018-01-11T22:36:14.807Z,3.24
2018-01-11T22:38:43.150Z,3.27
2018-01-11T22:41:11.601Z,3.12
2018-01-11T22:43:39.935Z,3.07
2018-01-11T22:46:08.322Z,3.10
2018-01-11T22:48:36.623Z,3.14
2018-01-11T22:51:05.124Z,3.06
2018-01-11T22:53:33.454Z,3.04
2018-01-11T22:56:01.884Z,3.20
2018-01-11T22:58:30.318Z,3.11
2018-01-11T23:00:58.656Z,3.20
2018-01-11T23:03:27.062Z,3.16
2018-01-11T23:05:55.466Z,3.20
2018-01-11T23:08:23.811Z,3.21
2018-01-11T23:10:53.708Z,3.23
2018-01-11T23:13:22.004Z,3.28
2018-01-11T23:15:52.347Z,3.17
2018-01-11T23:18:20.842Z,3.21
2018-01-11T23:20:49.143Z,3.28
2018-01-11T23:23:17.525Z,3.42
2018-01-11T23:25:45.873Z,3.40
2018-01-11T23:28:14.225Z,3.30
2018-01-11T23:30:42.514Z,3.26
2018-01-11T23:33:10.858Z,3.26
2018-01-11T23:35:39.193Z,3.35
2018-01-11T23:38:07.676Z,3.26
2018-01-11T23:40:36.023Z,3.36
2018-01-11T23:43:04.326Z,3.36
2018-01-11T23:45:32.626Z,3.35
2018-01-11T23:48:00.947Z,3.48
2018-01-11T23:50:29.289Z,3.46
2018-01-11T23:52:57.640Z,3.51
2018-01-11T23:55:27.288Z,3.35
2018-01-11T23:57:55.583Z,3.50
